createdAt,value
2019-03-05T00:00:00.789Z,9.48
2019-03-05T00:02:32.805Z,9.47
2019-03-05T00:05:05.663Z,9.48
2019-03-05T00:07:37.619Z,9.48
2019-03-05T00:10:17.433Z,9.48
2019-03-05T00:12:49.396Z,9.48
2019-03-05T00:15:24.324Z,9.49
2019-03-05T00:17:56.616Z,9.49
2019-03-05T00:20:29.336Z,9.48
2019-03-05T00:23:01.321Z,9.49
2019-03-05T00:25:36.252Z,9.48
2019-03-05T00:28:37.217Z,9.50
2019-03-05T00:31:28.735Z,9.48
2019-03-05T00:34:14.170Z,9.48
2019-03-05T00:36:50.717Z,9.47
2019-03-05T00:39:42.331Z,9.48
2019-03-05T00:43:07.368Z,9.49
2019-03-05T00:45:58.523Z,9.46
2019-03-05T00:49:01.423Z,9.41
2019-03-05T00:51:59.493Z,9.41
2019-03-05T00:54:44.880Z,9.40
2019-03-05T00:57:47.048Z,9.39
2019-03-05T01:00:35.039Z,9.40
2019-03-05T01:03:23.420Z,9.41
2019-03-05T01:06:05.399Z,9.41
2019-03-05T01:08:37.345Z,9.39
2019-03-05T01:11:09.445Z,9.40
2019-03-05T01:13:41.378Z,9.38
2019-03-05T01:16:15.078Z,9.39
2019-03-05T01:18:47.191Z,9.39
2019-03-05T01:21:19.150Z,9.39
2019-03-05T01:23:51.083Z,9.41
2019-03-05T01:26:23.110Z,9.42
2019-03-05T01:28:55.065Z,9.42
2019-03-05T01:31:40.746Z,9.41
2019-03-05T01:34:17.041Z,9.41
2019-03-05T01:36:53.463Z,9.40
2019-03-05T01:39:32.933Z,9.38
2019-03-05T01:42:07.139Z,9.38
2019-03-05T01:44:39.078Z,9.38
2019-03-05T01:47:11.395Z,9.37
2019-03-05T01:49:43.791Z,9.37
2019-03-05T01:52:15.738Z,9.37
2019-03-05T01:54:47.850Z,9.38
2019-03-05T01:57:19.857Z,9.37
2019-03-05T01:59:51.831Z,9.34
2019-03-05T02:02:24.647Z,9.34
2019-03-05T02:04:56.584Z,9.34
2019-03-05T02:07:28.556Z,9.34
2019-03-05T02:10:01.914Z,9.34
2019-03-05T02:12:34.174Z,9.33
2019-03-05T02:15:06.937Z,9.33
2019-03-05T02:17:56.759Z,9.31
2019-03-05T02:20:28.713Z,9.30
2019-03-05T02:23:14.692Z,9.31
2019-03-05T02:26:03.446Z,9.31
2019-03-05T02:28:40.326Z,9.27
2019-03-05T02:31:33.381Z,9.27
2019-03-05T02:34:15.562Z,9.26
2019-03-05T02:37:13.170Z,9.25
2019-03-05T02:40:10.362Z,9.24
2019-03-05T02:42:49.595Z,9.21
2019-03-05T02:45:43.655Z,9.21
2019-03-05T02:48:49.053Z,9.21
2019-03-05T02:52:00.392Z,9.22
2019-03-05T02:55:06.975Z,9.21
2019-03-05T02:57:37.279Z,9.20
2019-03-05T03:00:13.243Z,9.19
2019-03-05T03:02:46.827Z,9.20
2019-03-05T03:05:20.821Z,9.22
2019-03-05T03:07:52.738Z,9.24
2019-03-05T03:10:24.953Z,9.25
2019-03-05T03:12:56.885Z,9.22
2019-03-05T03:15:28.849Z,9.23
2019-03-05T03:18:00.803Z,9.24
2019-03-05T03:20:33.137Z,9.25
2019-03-05T03:23:05.074Z,9.25
2019-03-05T03:25:37.035Z,9.30
2019-03-05T03:28:09.230Z,9.31
2019-03-05T03:30:41.504Z,9.33
2019-03-05T03:33:13.819Z,9.35
2019-03-05T03:35:45.760Z,9.35
2019-03-05T03:38:18.003Z,9.36
2019-03-05T03:41:07.520Z,9.36
2019-03-05T03:43:39.464Z,9.37
2019-03-05T03:46:11.417Z,9.37
2019-03-05T03:48:43.376Z,9.38
2019-03-05T03:51:15.641Z,9.38
2019-03-05T03:53:47.583Z,9.39
2019-03-05T03:56:19.703Z,9.38
2019-03-05T03:58:52.040Z,9.39
2019-03-05T04:01:24.660Z,9.40
2019-03-05T04:03:57.506Z,9.40
2019-03-05T04:06:29.542Z,9.39
2019-03-05T04:09:01.559Z,9.39
2019-03-05T04:11:33.514Z,9.39
2019-03-05T04:14:05.463Z,9.39
2019-03-05T04:16:37.486Z,9.40
2019-03-05T04:19:11.085Z,9.39
2019-03-05T04:21:43.304Z,9.38
2019-03-05T04:24:15.300Z,9.36
2019-03-05T04:26:47.246Z,9.34
2019-03-05T04:29:19.196Z,9.31
2019-03-05T04:31:51.216Z,9.30
2019-03-05T04:34:23.166Z,9.29
2019-03-05T04:36:55.163Z,9.28
2019-03-05T04:39:27.103Z,9.27
2019-03-05T04:41:59.120Z,9.27
2019-03-05T04:44:32.687Z,9.28
2019-03-05T04:47:04.635Z,9.29
2019-03-05T04:49:44.281Z,9.30
2019-03-05T04:52:17.905Z,9.31
2019-03-05T04:54:49.842Z,9.30
2019-03-05T04:57:22.156Z,9.32
2019-03-05T04:59:54.102Z,9.32
2019-03-05T05:02:26.042Z,9.30
2019-03-05T05:04:57.982Z,9.28
2019-03-05T05:07:29.918Z,9.26
2019-03-05T05:10:01.879Z,9.22
2019-03-05T05:12:33.839Z,9.18
2019-03-05T05:15:26.717Z,9.15
2019-03-05T05:17:59.105Z,9.11
2019-03-05T05:20:31.306Z,9.09
2019-03-05T05:23:03.245Z,9.06
2019-03-05T05:25:35.267Z,9.05
2019-03-05T05:28:07.894Z,9.02
2019-03-05T05:30:42.798Z,9.00
2019-03-05T05:33:14.742Z,8.99
2019-03-05T05:35:46.834Z,9.01
2019-03-05T05:38:18.773Z,8.99
2019-03-05T05:40:50.722Z,8.98
2019-03-05T05:43:29.618Z,8.96
2019-03-05T05:46:01.689Z,8.97
2019-03-05T05:48:33.644Z,8.97
2019-03-05T05:51:05.612Z,8.98
2019-03-05T05:53:37.547Z,8.98
2019-03-05T05:56:09.496Z,8.98
2019-03-05T05:58:41.454Z,8.99
2019-03-05T06:01:13.758Z,8.97
2019-03-05T06:03:45.703Z,8.97
2019-03-05T06:06:17.681Z,8.97
2019-03-05T06:08:49.618Z,8.95
2019-03-05T06:11:21.562Z,8.97
2019-03-05T06:13:53.501Z,8.99
2019-03-05T06:16:25.448Z,8.99
2019-03-05T06:18:57.393Z,8.99
2019-03-05T06:21:29.321Z,9.00
2019-03-05T06:24:01.287Z,9.00
2019-03-05T06:26:33.220Z,8.99
2019-03-05T06:29:05.168Z,8.99
2019-03-05T06:31:37.117Z,8.99
2019-03-05T06:34:09.051Z,8.99
2019-03-05T06:36:50.690Z,8.99
2019-03-05T06:39:22.644Z,8.97
2019-03-05T06:41:54.863Z,8.96
2019-03-05T06:44:27.139Z,8.94
2019-03-05T06:46:59.086Z,8.94
2019-03-05T06:49:31.049Z,8.93
2019-03-05T06:52:03.466Z,8.95
2019-03-05T06:54:35.410Z,8.96
2019-03-05T06:57:07.350Z,8.96
2019-03-05T06:59:39.329Z,8.98
2019-03-05T07:02:11.267Z,9.00
2019-03-05T07:04:44.875Z,9.00
2019-03-05T07:07:16.821Z,9.00
2019-03-05T07:10:02.190Z,9.01
2019-03-05T07:12:44.485Z,9.00
2019-03-05T07:15:51.057Z,8.99
2019-03-05T07:18:33.766Z,8.94
2019-03-05T07:21:32.651Z,8.92
2019-03-05T07:24:30.420Z,8.91
2019-03-05T07:27:02.511Z,8.91
2019-03-05T07:29:34.444Z,8.95
2019-03-05T07:32:06.474Z,8.95
2019-03-05T07:34:40.042Z,8.97
2019-03-05T07:37:13.444Z,8.98
2019-03-05T07:39:45.373Z,8.99
2019-03-05T07:42:17.315Z,9.02
2019-03-05T07:44:49.307Z,9.02
2019-03-05T07:47:21.543Z,9.03
2019-03-05T07:49:53.537Z,9.05
2019-03-05T07:52:25.471Z,9.06
2019-03-05T07:54:57.445Z,9.06
2019-03-05T07:57:29.410Z,9.08
2019-03-05T08:00:01.376Z,9.10
2019-03-05T08:02:33.312Z,9.12
2019-03-05T08:05:07.644Z,9.12
2019-03-05T08:07:40.024Z,9.14
2019-03-05T08:10:22.061Z,9.14
2019-03-05T08:13:07.875Z,9.13
2019-03-05T08:16:09.676Z,9.13
2019-03-05T08:18:41.658Z,9.13
2019-03-05T08:21:13.615Z,9.15
2019-03-05T08:23:48.266Z,9.15
2019-03-05T08:26:19.260Z,9.17
2019-03-05T08:28:51.217Z,9.19
2019-03-05T08:31:23.185Z,9.22
2019-03-05T08:33:55.138Z,9.26
2019-03-05T08:36:27.112Z,9.33
2019-03-05T08:38:59.228Z,9.36
2019-03-05T08:41:31.189Z,9.39
2019-03-05T08:44:03.132Z,9.40
2019-03-05T08:46:35.104Z,9.43
2019-03-05T08:49:07.644Z,9.50
2019-03-05T08:51:44.584Z,9.52
2019-03-05T08:54:16.598Z,9.53
2019-03-05T08:56:48.559Z,9.57
2019-03-05T08:59:20.517Z,9.63
2019-03-05T09:01:52.459Z,9.68
2019-03-05T09:04:24.955Z,9.73
2019-03-05T09:06:56.917Z,9.79
2019-03-05T09:09:28.850Z,9.77
2019-03-05T09:12:00.872Z,9.76
2019-03-05T09:14:34.433Z,9.72
2019-03-05T09:17:06.634Z,9.69
2019-03-05T09:19:38.575Z,9.72
2019-03-05T09:22:10.805Z,9.75
2019-03-05T09:24:42.758Z,9.50
2019-03-05T09:27:14.725Z,9.79
2019-03-05T09:29:48.203Z,9.80
2019-03-05T09:32:20.169Z,9.84
2019-03-05T09:34:52.474Z,9.86
2019-03-05T09:37:24.780Z,9.84
2019-03-05T09:39:56.791Z,9.83
2019-03-05T09:42:39.350Z,9.82
2019-03-05T09:45:02.377Z,9.79
2019-03-05T09:47:34.320Z,9.79
2019-03-05T09:50:10.874Z,9.78
2019-03-05T09:52:51.227Z,9.77
2019-03-05T09:55:27.803Z,9.77
2019-03-05T09:58:07.981Z,9.81
2019-03-05T10:00:33.554Z,9.58
2019-03-05T10:03:07.176Z,9.89
2019-03-05T10:05:39.367Z,9.91
2019-03-05T10:08:11.457Z,9.95
2019-03-05T10:10:43.495Z,9.96
2019-03-05T10:13:15.441Z,9.96
2019-03-05T10:15:47.379Z,9.95
2019-03-05T10:18:19.330Z,9.94
2019-03-05T10:20:51.273Z,9.91
2019-03-05T10:23:23.227Z,9.88
2019-03-05T10:25:55.774Z,9.89
2019-03-05T10:28:28.357Z,9.91
2019-03-05T10:31:00.335Z,9.98
2019-03-05T10:33:32.292Z,10.07
2019-03-05T10:36:04.579Z,10.15
2019-03-05T10:38:36.823Z,10.21
2019-03-05T10:41:08.887Z,10.23
2019-03-05T10:43:40.798Z,10.25
2019-03-05T10:46:13.099Z,10.32
2019-03-05T10:48:45.041Z,10.38
2019-03-05T10:51:17.716Z,10.41
2019-03-05T10:53:49.701Z,10.43
2019-03-05T10:56:22.088Z,10.47
2019-03-05T10:58:54.687Z,10.48
2019-03-05T11:01:26.691Z,10.48
2019-03-05T11:03:59.147Z,10.47
2019-03-05T11:06:31.714Z,10.45
2019-03-05T11:09:04.504Z,10.17
2019-03-05T11:11:36.497Z,10.42
2019-03-05T11:14:08.813Z,10.38
2019-03-05T11:16:40.762Z,10.34
2019-03-05T11:19:12.916Z,10.32
2019-03-05T11:21:45.467Z,10.33
2019-03-05T11:24:17.766Z,10.30
2019-03-05T11:26:49.787Z,10.28
2019-03-05T11:29:22.088Z,10.28
2019-03-05T11:31:54.058Z,10.24
2019-03-05T11:34:26.027Z,10.23
2019-03-05T11:36:57.992Z,10.25
2019-03-05T11:39:30.035Z,10.25
2019-03-05T11:42:01.989Z,10.27
2019-03-05T11:44:34.358Z,10.27
2019-03-05T11:47:06.502Z,10.30
2019-03-05T11:49:38.507Z,10.30
2019-03-05T11:52:10.514Z,10.34
2019-03-05T11:54:42.479Z,10.32
2019-03-05T11:57:14.487Z,10.31
2019-03-05T11:59:46.450Z,10.30
2019-03-05T12:02:21.710Z,10.27
2019-03-05T12:04:52.074Z,10.24
2019-03-05T12:07:24.286Z,10.22
2019-03-05T12:09:56.276Z,10.23
2019-03-05T12:12:28.221Z,10.29
2019-03-05T12:15:00.312Z,10.33
2019-03-05T12:17:32.463Z,10.38
2019-03-05T12:20:05.634Z,10.46
2019-03-05T12:22:37.575Z,10.48
2019-03-05T12:25:14.088Z,10.50
2019-03-05T12:27:46.217Z,10.51
2019-03-05T12:30:29.443Z,10.51
2019-03-05T12:33:01.463Z,10.53
2019-03-05T12:35:35.408Z,10.52
2019-03-05T12:38:07.257Z,10.26
2019-03-05T12:40:39.319Z,10.54
2019-03-05T12:43:11.332Z,10.54
2019-03-05T12:45:43.395Z,10.55
2019-03-05T12:48:15.711Z,10.54
2019-03-05T12:50:47.665Z,10.50
2019-03-05T12:53:19.762Z,10.49
2019-03-05T12:55:51.726Z,10.51
2019-03-05T12:58:23.673Z,10.50
2019-03-05T13:00:55.663Z,10.49
2019-03-05T13:03:27.875Z,10.50
2019-03-05T13:05:59.973Z,10.54
2019-03-05T13:08:31.940Z,10.61
2019-03-05T13:11:03.906Z,10.64
2019-03-05T13:13:37.398Z,10.69
2019-03-05T13:16:09.467Z,10.72
2019-03-05T13:18:41.490Z,10.73
2019-03-05T13:21:13.708Z,10.79
2019-03-05T13:23:45.685Z,10.80
2019-03-05T13:26:17.636Z,10.75
2019-03-05T13:28:49.645Z,10.75
2019-03-05T13:31:21.581Z,10.71
2019-03-05T13:33:53.628Z,10.67
2019-03-05T13:36:25.689Z,10.63
2019-03-05T13:38:57.639Z,10.57
2019-03-05T13:41:30.094Z,10.54
2019-03-05T13:44:02.048Z,10.51
2019-03-05T13:46:34.015Z,10.50
2019-03-05T13:49:25.522Z,10.44
2019-03-05T13:52:21.600Z,10.39
2019-03-05T13:55:17.853Z,10.36
2019-03-05T13:58:37.866Z,10.36
2019-03-05T14:01:11.056Z,10.34
2019-03-05T14:03:47.625Z,10.35
2019-03-05T14:06:58.931Z,10.32
2019-03-05T14:09:29.365Z,10.31
2019-03-05T14:12:01.306Z,10.30
2019-03-05T14:14:33.347Z,10.32
2019-03-05T14:17:19.281Z,10.32
2019-03-05T14:19:51.540Z,10.31
2019-03-05T14:22:23.597Z,10.33
2019-03-05T14:25:02.315Z,10.30
2019-03-05T14:27:29.622Z,10.31
2019-03-05T14:30:03.042Z,10.30
2019-03-05T14:32:35.217Z,10.28
2019-03-05T14:35:11.511Z,9.83
2019-03-05T14:37:43.736Z,10.26
2019-03-05T14:40:24.440Z,10.27
2019-03-05T14:42:54.306Z,10.27
2019-03-05T14:45:30.219Z,10.30
2019-03-05T14:48:04.282Z,10.32
2019-03-05T14:50:36.057Z,10.30
2019-03-05T14:53:09.055Z,10.28
2019-03-05T14:55:41.206Z,10.24
2019-03-05T14:58:13.256Z,9.95
2019-03-05T15:00:45.390Z,10.21
2019-03-05T15:03:17.531Z,10.21
2019-03-05T15:05:49.629Z,10.21
2019-03-05T15:08:21.890Z,10.20
2019-03-05T15:10:56.871Z,10.20
2019-03-05T15:13:28.860Z,10.19
2019-03-05T15:16:01.106Z,10.17
2019-03-05T15:18:36.096Z,10.13
2019-03-05T15:21:08.412Z,10.09
2019-03-05T15:23:41.971Z,10.05
2019-03-05T15:26:15.276Z,10.01
2019-03-05T15:28:56.150Z,10.00
2019-03-05T15:31:21.340Z,9.99
2019-03-05T15:33:54.840Z,9.95
2019-03-05T15:36:26.935Z,9.92
2019-03-05T15:38:59.071Z,9.92
2019-03-05T15:41:31.149Z,9.90
2019-03-05T15:44:03.355Z,9.89
2019-03-05T15:46:35.634Z,9.90
2019-03-05T15:49:07.653Z,9.88
2019-03-05T15:51:41.129Z,9.87
2019-03-05T15:54:14.712Z,9.85
2019-03-05T15:56:47.859Z,9.83
2019-03-05T15:59:21.333Z,9.83
2019-03-05T16:01:56.125Z,9.54
2019-03-05T16:04:29.613Z,9.80
2019-03-05T16:07:01.567Z,9.79
2019-03-05T16:09:35.073Z,9.78
2019-03-05T16:12:09.478Z,9.77
2019-03-05T16:14:41.280Z,9.73
2019-03-05T16:17:14.039Z,9.70
2019-03-05T16:19:49.073Z,9.67
2019-03-05T16:22:24.439Z,9.64
2019-03-05T16:24:56.587Z,9.60
2019-03-05T16:27:30.060Z,9.58
2019-03-05T16:30:02.404Z,9.56
2019-03-05T16:32:35.985Z,9.51
2019-03-05T16:35:13.508Z,9.48
2019-03-05T16:37:49.760Z,9.44
2019-03-05T16:40:23.803Z,9.41
2019-03-05T16:43:06.715Z,9.39
2019-03-05T16:45:43.013Z,9.35
2019-03-05T16:48:25.796Z,9.31
2019-03-05T16:51:04.941Z,9.28
2019-03-05T16:53:41.643Z,9.25
2019-03-05T16:56:15.227Z,9.20
2019-03-05T16:58:54.777Z,9.18
2019-03-05T17:01:37.163Z,9.14
2019-03-05T17:04:27.236Z,9.08
2019-03-05T17:07:16.982Z,9.06
2019-03-05T17:09:53.551Z,9.03
2019-03-05T17:12:25.525Z,9.02
2019-03-05T17:14:57.474Z,9.00
2019-03-05T17:17:29.457Z,8.98
2019-03-05T17:20:01.393Z,8.95
2019-03-05T17:22:33.643Z,8.92
2019-03-05T17:25:16.445Z,8.98
2019-03-05T17:27:48.710Z,9.00
2019-03-05T17:30:21.156Z,8.98
2019-03-05T17:32:53.222Z,8.95
2019-03-05T17:35:25.545Z,8.90
2019-03-05T17:37:57.564Z,8.89
2019-03-05T17:40:29.518Z,8.85
2019-03-05T17:43:01.502Z,8.83
2019-03-05T17:45:33.459Z,8.81
2019-03-05T17:48:05.407Z,8.79
2019-03-05T17:50:37.401Z,8.77
2019-03-05T17:53:09.444Z,8.75
2019-03-05T17:55:41.547Z,8.75
2019-03-05T17:58:13.527Z,8.73
2019-03-05T18:00:47.119Z,8.72
2019-03-05T18:03:19.153Z,8.70
2019-03-05T18:05:51.097Z,8.70
2019-03-05T18:08:23.266Z,8.69
2019-03-05T18:10:55.228Z,8.67
2019-03-05T18:13:27.471Z,8.66
2019-03-05T18:15:59.691Z,8.65
2019-03-05T18:18:34.343Z,8.65
2019-03-05T18:21:06.755Z,8.63
2019-03-05T18:23:39.137Z,8.63
2019-03-05T18:26:11.352Z,8.60
2019-03-05T18:28:43.293Z,8.58
2019-03-05T18:31:15.253Z,8.53
2019-03-05T18:33:47.195Z,8.52
2019-03-05T18:36:19.153Z,8.52
2019-03-05T18:38:51.103Z,8.53
2019-03-05T18:41:23.059Z,8.53
2019-03-05T18:43:55.009Z,8.53
2019-03-05T18:46:26.991Z,8.50
2019-03-05T18:48:58.939Z,8.50
2019-03-05T18:51:30.899Z,8.48
2019-03-05T18:54:03.264Z,8.47
2019-03-05T18:56:35.203Z,8.31
2019-03-05T18:59:07.226Z,8.44
2019-03-05T19:01:39.189Z,8.43
2019-03-05T19:04:11.179Z,8.41
2019-03-05T19:06:43.514Z,8.40
2019-03-05T19:09:16.173Z,8.38
2019-03-05T19:11:48.126Z,8.38
2019-03-05T19:14:20.083Z,8.36
2019-03-05T19:16:52.032Z,8.35
2019-03-05T19:19:24.385Z,8.33
2019-03-05T19:21:56.353Z,8.31
2019-03-05T19:24:28.332Z,8.30
2019-03-05T19:27:00.302Z,8.28
2019-03-05T19:29:32.266Z,8.27
2019-03-05T19:32:04.209Z,8.25
2019-03-05T19:34:36.537Z,8.24
2019-03-05T19:37:08.476Z,8.22
2019-03-05T19:39:40.771Z,8.21
2019-03-05T19:42:12.814Z,8.18
2019-03-05T19:44:44.784Z,8.17
2019-03-05T19:47:16.726Z,8.16
2019-03-05T19:49:48.705Z,8.14
2019-03-05T19:52:20.650Z,8.12
2019-03-05T19:54:52.613Z,8.10
2019-03-05T19:57:24.573Z,8.11
2019-03-05T19:59:56.528Z,8.08
2019-03-05T20:02:28.499Z,8.07
2019-03-05T20:05:00.437Z,8.06
2019-03-05T20:07:32.407Z,8.05
2019-03-05T20:10:06.933Z,8.03
2019-03-05T20:12:39.156Z,8.02
2019-03-05T20:15:15.378Z,7.99
2019-03-05T20:17:47.901Z,7.99
2019-03-05T20:20:19.855Z,7.96
2019-03-05T20:22:51.876Z,7.96
2019-03-05T20:25:27.771Z,7.93
2019-03-05T20:28:01.090Z,7.93
2019-03-05T20:30:33.100Z,7.92
2019-03-05T20:33:05.447Z,7.90
2019-03-05T20:35:37.464Z,7.90
2019-03-05T20:38:09.588Z,7.88
2019-03-05T20:40:41.547Z,7.86
2019-03-05T20:43:13.484Z,7.85
2019-03-05T20:45:55.187Z,7.82
2019-03-05T20:48:27.134Z,7.78
2019-03-05T20:50:59.402Z,7.78
2019-03-05T20:53:31.346Z,7.77
2019-03-05T20:56:03.308Z,7.76
2019-03-05T20:58:36.359Z,7.76
2019-03-05T21:01:09.774Z,7.74
2019-03-05T21:03:41.730Z,7.73
2019-03-05T21:06:13.679Z,7.72
2019-03-05T21:08:45.630Z,7.71
2019-03-05T21:11:17.756Z,7.69
2019-03-05T21:13:49.712Z,7.69
2019-03-05T21:16:21.662Z,7.67
2019-03-05T21:18:53.690Z,7.67
2019-03-05T21:21:25.648Z,7.63
2019-03-05T21:23:57.899Z,7.62
2019-03-05T21:26:29.866Z,7.59
2019-03-05T21:29:01.851Z,7.59
2019-03-05T21:31:33.820Z,7.58
2019-03-05T21:34:05.760Z,7.57
2019-03-05T21:36:37.864Z,7.56
2019-03-05T21:39:15.012Z,7.55
2019-03-05T21:41:46.980Z,7.54
2019-03-05T21:44:18.930Z,7.54
2019-03-05T21:46:51.061Z,7.52
2019-03-05T21:49:25.343Z,7.50
2019-03-05T21:51:57.590Z,7.49
2019-03-05T21:54:29.878Z,7.49
2019-03-05T21:57:01.856Z,7.48
2019-03-05T21:59:34.066Z,7.47
2019-03-05T22:02:06.047Z,7.48
2019-03-05T22:04:37.992Z,7.48
2019-03-05T22:07:09.978Z,7.45
2019-03-05T22:09:41.927Z,7.43
2019-03-05T22:12:13.927Z,7.44
2019-03-05T22:14:45.883Z,7.42
2019-03-05T22:17:17.926Z,7.42
2019-03-05T22:19:49.884Z,7.42
2019-03-05T22:22:21.831Z,7.41
2019-03-05T22:24:54.138Z,7.39
2019-03-05T22:27:26.111Z,7.39
2019-03-05T22:29:58.063Z,7.38
2019-03-05T22:32:30.017Z,7.37
2019-03-05T22:35:01.968Z,7.35
2019-03-05T22:37:33.916Z,7.34
2019-03-05T22:40:10.672Z,7.33
2019-03-05T22:42:42.621Z,7.31
2019-03-05T22:45:18.730Z,7.30
2019-03-05T22:47:51.034Z,7.28
2019-03-05T22:50:22.989Z,7.26
2019-03-05T22:52:55.269Z,7.26
2019-03-05T22:55:27.219Z,7.25
2019-03-05T22:57:59.718Z,7.24
2019-03-05T23:00:56.329Z,7.23
2019-03-05T23:03:32.512Z,7.22
2019-03-05T23:06:11.632Z,7.20
2019-03-05T23:08:43.751Z,7.19
2019-03-05T23:11:15.688Z,7.19
2019-03-05T23:13:48.365Z,7.19
2019-03-05T23:16:20.582Z,7.19
2019-03-05T23:18:52.537Z,7.19
2019-03-05T23:21:24.631Z,7.19
2019-03-05T23:23:57.091Z,7.18
2019-03-05T23:26:29.140Z,7.16
2019-03-05T23:29:01.080Z,7.15
2019-03-05T23:31:33.039Z,7.13
2019-03-05T23:34:05.800Z,7.12
2019-03-05T23:36:37.767Z,7.12
2019-03-05T23:39:13.855Z,7.10
2019-03-05T23:41:45.823Z,7.09
2019-03-05T23:44:18.010Z,7.08
2019-03-05T23:46:49.961Z,7.05
2019-03-05T23:49:21.914Z,7.03
2019-03-05T23:51:54.161Z,7.02
2019-03-05T23:54:26.491Z,7.02
2019-03-05T23:56:58.464Z,7.00
2019-03-05T23:59:30.427Z,6.98
